sensor_id;sensor_type;location;lat;lon;timestamp;pressure;altitude;pressure_sealevel;temperature;humidity
6942;BME280;3510;43.200;27.920;2023-03-01T00:00:03;102065.13;;;14.11;50.82
6942;BME280;3510;43.200;27.920;2023-03-01T00:02:30;102063.28;;;14.00;51.80
6942;BME280;3510;43.200;27.920;2023-03-01T00:04:56;102067.16;;;13.50;52.82
6942;BME280;3510;43.200;27.920;2023-03-01T00:07:23;102060.03;;;14.39;50.56
6942;BME280;3510;43.200;27.920;2023-03-01T00:09:50;102066.38;;;14.44;50.46
6942;BME280;3510;43.200;27.920;2023-03-01T00:12:17;102062.56;;;13.73;52.58
6942;BME280;3510;43.200;27.920;2023-03-01T00:14:43;102056.06;;;13.22;53.61
6942;BME280;3510;43.200;27.920;2023-03-01T00:17:10;102062.41;;;14.18;51.13
6942;BME280;3510;43.200;27.920;2023-03-01T00:19:36;102068.91;;;13.78;51.89
6942;BME280;3510;43.200;27.920;2023-03-01T00:22:03;102063.94;;;13.89;52.30
6942;BME280;3510;43.200;27.920;2023-03-01T00:24:30;102067.94;;;14.14;50.99
6942;BME280;3510;43.200;27.920;2023-03-01T00:26:57;102072.34;;;14.25;50.16
6942;BME280;3510;43.200;27.920;2023-03-01T00:29:24;102065.66;;;13.79;51.62
6942;BME280;3510;43.200;27.920;2023-03-01T00:31:51;102066.53;;;12.99;53.53
6942;BME280;3510;43.200;27.920;2023-03-01T00:34:17;102060.81;;;12.48;54.70
6942;BME280;3510;43.200;27.920;2023-03-01T00:36:44;102056.53;;;13.82;51.92
6942;BME280;3510;43.200;27.920;2023-03-01T00:39:11;102050.22;;;13.68;52.62
6942;BME280;3510;43.200;27.920;2023-03-01T00:41:38;102034.19;;;14.05;50.68
6942;BME280;3510;43.200;27.920;2023-03-01T00:44:06;102021.13;;;13.82;51.49
6942;BME280;3510;43.200;27.920;2023-03-01T00:46:33;102032.38;;;13.39;52.81
6942;BME280;3510;43.200;27.920;2023-03-01T00:48:59;102040.81;;;13.03;53.09
6942;BME280;3510;43.200;27.920;2023-03-01T00:51:27;102026.53;;;13.03;52.65
6942;BME280;3510;43.200;27.920;2023-03-01T00:53:54;102030.44;;;12.91;53.02
6942;BME280;3510;43.200;27.920;2023-03-01T00:56:22;102017.66;;;12.90;53.02
6942;BME280;3510;43.200;27.920;2023-03-01T00:58:49;102031.03;;;11.76;54.40
6942;BME280;3510;43.200;27.920;2023-03-01T01:01:19;102012.84;;;12.30;54.13
6942;BME280;3510;43.200;27.920;2023-03-01T01:03:48;102021.59;;;12.51;53.62
6942;BME280;3510;43.200;27.920;2023-03-01T01:06:17;102017.13;;;12.66;53.06
6942;BME280;3510;43.200;27.920;2023-03-01T01:08:44;102019.66;;;12.49;53.46
6942;BME280;3510;43.200;27.920;2023-03-01T01:11:12;102022.44;;;12.78;52.88
6942;BME280;3510;43.200;27.920;2023-03-01T01:13:39;102007.69;;;13.36;51.21
6942;BME280;3510;43.200;27.920;2023-03-01T01:16:07;101997.97;;;13.04;51.58
6942;BME280;3510;43.200;27.920;2023-03-01T01:18:35;102005.53;;;12.59;53.25
6942;BME280;3510;43.200;27.920;2023-03-01T01:21:04;101995.91;;;13.09;51.76
6942;BME280;3510;43.200;27.920;2023-03-01T01:23:31;101997.44;;;12.98;52.41
6942;BME280;3510;43.200;27.920;2023-03-01T01:26:03;102002.38;;;12.79;52.60
6942;BME280;3510;43.200;27.920;2023-03-01T01:28:30;102005.91;;;12.99;51.40
6942;BME280;3510;43.200;27.920;2023-03-01T01:30:57;101982.59;;;12.84;51.85
6942;BME280;3510;43.200;27.920;2023-03-01T01:33:24;101999.19;;;12.99;51.10
6942;BME280;3510;43.200;27.920;2023-03-01T01:35:52;101999.91;;;13.07;51.32
6942;BME280;3510;43.200;27.920;2023-03-01T01:38:19;101991.22;;;12.77;51.57
6942;BME280;3510;43.200;27.920;2023-03-01T01:40:47;102016.03;;;13.35;50.95
6942;BME280;3510;43.200;27.920;2023-03-01T01:43:19;101999.00;;;13.51;50.83
6942;BME280;3510;43.200;27.920;2023-03-01T01:45:46;101997.72;;;13.65;50.57
6942;BME280;3510;43.200;27.920;2023-03-01T01:48:17;102003.22;;;13.89;49.69
6942;BME280;3510;43.200;27.920;2023-03-01T01:50:45;102000.72;;;13.61;49.88
6942;BME280;3510;43.200;27.920;2023-03-01T01:53:19;101963.25;;;13.29;50.39
6942;BME280;3510;43.200;27.920;2023-03-01T01:55:50;101988.13;;;12.71;52.14
6942;BME280;3510;43.200;27.920;2023-03-01T01:58:19;101990.94;;;13.28;50.84
6942;BME280;3510;43.200;27.920;2023-03-01T02:00:48;101987.75;;;13.03;51.86
6942;BME280;3510;43.200;27.920;2023-03-01T02:03:19;101994.13;;;12.99;52.19
6942;BME280;3510;43.200;27.920;2023-03-01T02:05:50;101980.44;;;13.89;49.90
6942;BME280;3510;43.200;27.920;2023-03-01T02:08:23;101999.19;;;12.37;52.58
6942;BME280;3510;43.200;27.920;2023-03-01T02:10:51;102000.38;;;13.67;51.11
6942;BME280;3510;43.200;27.920;2023-03-01T02:13:19;102001.75;;;14.20;49.67
6942;BME280;3510;43.200;27.920;2023-03-01T02:15:46;102014.63;;;14.69;48.47
6942;BME280;3510;43.200;27.920;2023-03-01T02:18:14;102003.88;;;14.82;47.97
6942;BME280;3510;43.200;27.920;2023-03-01T02:20:51;102019.78;;;14.04;49.97
6942;BME280;3510;43.200;27.920;2023-03-01T02:23:23;102017.75;;;14.96;47.76
6942;BME280;3510;43.200;27.920;2023-03-01T02:25:55;102020.41;;;13.55;51.01
6942;BME280;3510;43.200;27.920;2023-03-01T02:28:30;102008.47;;;13.82;49.56
6942;BME280;3510;43.200;27.920;2023-03-01T02:30:57;102015.72;;;14.63;48.28
6942;BME280;3510;43.200;27.920;2023-03-01T02:33:38;102020.91;;;14.45;48.32
6942;BME280;3510;43.200;27.920;2023-03-01T02:36:08;102001.94;;;13.56;49.68
6942;BME280;3510;43.200;27.920;2023-03-01T02:38:39;102007.34;;;13.05;50.88
6942;BME280;3510;43.200;27.920;2023-03-01T02:41:07;102012.66;;;13.26;49.98
6942;BME280;3510;43.200;27.920;2023-03-01T02:43:36;102024.91;;;13.68;49.79
6942;BME280;3510;43.200;27.920;2023-03-01T02:46:06;102019.50;;;13.18;50.69
6942;BME280;3510;43.200;27.920;2023-03-01T02:48:42;102024.97;;;14.24;47.98
6942;BME280;3510;43.200;27.920;2023-03-01T02:51:17;102033.13;;;14.12;48.44
6942;BME280;3510;43.200;27.920;2023-03-01T02:53:56;102039.56;;;14.65;47.37
6942;BME280;3510;43.200;27.920;2023-03-01T02:56:27;102002.34;;;14.07;48.34
6942;BME280;3510;43.200;27.920;2023-03-01T02:58:56;102020.19;;;14.65;46.70
6942;BME280;3510;43.200;27.920;2023-03-01T03:01:26;102031.34;;;15.07;46.32
6942;BME280;3510;43.200;27.920;2023-03-01T03:04:02;102037.06;;;14.37;48.01
6942;BME280;3510;43.200;27.920;2023-03-01T03:06:29;102033.50;;;15.02;46.41
6942;BME280;3510;43.200;27.920;2023-03-01T03:08:56;102036.28;;;14.28;47.53
6942;BME280;3510;43.200;27.920;2023-03-01T03:11:23;102036.38;;;14.67;47.33
6942;BME280;3510;43.200;27.920;2023-03-01T03:13:50;102035.84;;;14.23;48.08
6942;BME280;3510;43.200;27.920;2023-03-01T03:16:18;102026.78;;;13.79;48.52
6942;BME280;3510;43.200;27.920;2023-03-01T03:18:46;102031.81;;;14.07;47.96
6942;BME280;3510;43.200;27.920;2023-03-01T03:21:13;102027.84;;;14.38;47.78
6942;BME280;3510;43.200;27.920;2023-03-01T03:23:40;102034.94;;;14.42;47.73
6942;BME280;3510;43.200;27.920;2023-03-01T03:26:07;102033.34;;;15.00;46.44
6942;BME280;3510;43.200;27.920;2023-03-01T03:28:34;102035.81;;;14.51;47.96
6942;BME280;3510;43.200;27.920;2023-03-01T03:31:06;102026.25;;;14.67;47.13
6942;BME280;3510;43.200;27.920;2023-03-01T03:33:34;102015.13;;;14.75;46.86
6942;BME280;3510;43.200;27.920;2023-03-01T03:36:01;102035.72;;;14.89;46.77
6942;BME280;3510;43.200;27.920;2023-03-01T03:38:28;102034.50;;;14.65;46.79
6942;BME280;3510;43.200;27.920;2023-03-01T03:41:01;102033.38;;;14.15;48.11
6942;BME280;3510;43.200;27.920;2023-03-01T03:43:30;102040.25;;;13.69;49.14
6942;BME280;3510;43.200;27.920;2023-03-01T03:45:57;102016.34;;;14.03;48.12
6942;BME280;3510;43.200;27.920;2023-03-01T03:48:24;102021.81;;;13.34;50.08
6942;BME280;3510;43.200;27.920;2023-03-01T03:50:54;102008.31;;;13.34;49.54
6942;BME280;3510;43.200;27.920;2023-03-01T03:53:22;102001.25;;;13.67;49.69
6942;BME280;3510;43.200;27.920;2023-03-01T03:55:49;101996.19;;;14.14;48.18
6942;BME280;3510;43.200;27.920;2023-03-01T03:58:17;101983.91;;;14.18;48.11
6942;BME280;3510;43.200;27.920;2023-03-01T04:00:46;101994.41;;;14.13;48.08
6942;BME280;3510;43.200;27.920;2023-03-01T04:03:15;101993.38;;;13.92;48.73
6942;BME280;3510;43.200;27.920;2023-03-01T04:05:42;101967.94;;;13.44;49.93
6942;BME280;3510;43.200;27.920;2023-03-01T04:08:10;101990.31;;;13.58;50.17
6942;BME280;3510;43.200;27.920;2023-03-01T04:10:39;101977.00;;;12.69;51.74
6942;BME280;3510;43.200;27.920;2023-03-01T04:13:09;101970.09;;;12.94;51.12
6942;BME280;3510;43.200;27.920;2023-03-01T04:15:37;101984.34;;;12.94;51.10
6942;BME280;3510;43.200;27.920;2023-03-01T04:18:04;101980.66;;;13.35;50.28
6942;BME280;3510;43.200;27.920;2023-03-01T04:20:33;101945.91;;;13.24;50.58
6942;BME280;3510;43.200;27.920;2023-03-01T04:23:03;101982.47;;;13.27;50.42
6942;BME280;3510;43.200;27.920;2023-03-01T04:25:39;101958.69;;;14.10;48.88
6942;BME280;3510;43.200;27.920;2023-03-01T04:28:06;101975.78;;;13.74;49.91
6942;BME280;3510;43.200;27.920;2023-03-01T04:30:33;101987.69;;;14.13;49.34
6942;BME280;3510;43.200;27.920;2023-03-01T04:33:03;101987.06;;;14.16;49.51
6942;BME280;3510;43.200;27.920;2023-03-01T04:35:30;101986.66;;;14.11;48.97
6942;BME280;3510;43.200;27.920;2023-03-01T04:37:57;102000.88;;;14.96;47.12
6942;BME280;3510;43.200;27.920;2023-03-01T04:40:24;101999.50;;;15.00;46.90
6942;BME280;3510;43.200;27.920;2023-03-01T04:42:52;102003.09;;;14.25;48.58
6942;BME280;3510;43.200;27.920;2023-03-01T04:45:19;101997.44;;;14.86;46.75
6942;BME280;3510;43.200;27.920;2023-03-01T04:47:46;101991.34;;;14.84;47.30
6942;BME280;3510;43.200;27.920;2023-03-01T04:50:16;101986.59;;;13.82;48.77
6942;BME280;3510;43.200;27.920;2023-03-01T04:52:46;101989.31;;;13.94;49.18
6942;BME280;3510;43.200;27.920;2023-03-01T04:55:13;101991.97;;;13.58;49.73
6942;BME280;3510;43.200;27.920;2023-03-01T04:57:40;101983.75;;;13.60;49.55
6942;BME280;3510;43.200;27.920;2023-03-01T05:00:11;101989.84;;;13.62;49.50
6942;BME280;3510;43.200;27.920;2023-03-01T05:02:48;101976.22;;;13.98;48.96
6942;BME280;3510;43.200;27.920;2023-03-01T05:05:22;101980.13;;;13.94;48.67
6942;BME280;3510;43.200;27.920;2023-03-01T05:07:52;101982.97;;;13.89;48.37
6942;BME280;3510;43.200;27.920;2023-03-01T05:10:19;101985.41;;;13.78;48.54
6942;BME280;3510;43.200;27.920;2023-03-01T05:12:46;101972.03;;;13.79;48.52
6942;BME280;3510;43.200;27.920;2023-03-01T05:15:14;101995.38;;;13.30;48.86
6942;BME280;3510;43.200;27.920;2023-03-01T05:17:41;101982.00;;;14.16;47.80
6942;BME280;3510;43.200;27.920;2023-03-01T05:20:10;101952.53;;;13.78;48.10
6942;BME280;3510;43.200;27.920;2023-03-01T05:22:37;101985.09;;;14.22;47.11
6942;BME280;3510;43.200;27.920;2023-03-01T05:25:04;101948.06;;;14.14;47.81
6942;BME280;3510;43.200;27.920;2023-03-01T05:27:32;101986.88;;;13.85;48.75
6942;BME280;3510;43.200;27.920;2023-03-01T05:29:59;101988.41;;;13.55;48.60
6942;BME280;3510;43.200;27.920;2023-03-01T05:32:40;101978.25;;;14.21;47.12
6942;BME280;3510;43.200;27.920;2023-03-01T05:35:08;101988.50;;;14.03;47.95
6942;BME280;3510;43.200;27.920;2023-03-01T05:37:40;101985.41;;;13.97;47.69
6942;BME280;3510;43.200;27.920;2023-03-01T05:40:09;101985.91;;;14.12;47.85
6942;BME280;3510;43.200;27.920;2023-03-01T05:42:42;101991.50;;;14.18;47.59
6942;BME280;3510;43.200;27.920;2023-03-01T05:45:10;101985.91;;;13.93;48.26
6942;BME280;3510;43.200;27.920;2023-03-01T05:47:39;101980.47;;;14.37;47.63
6942;BME280;3510;43.200;27.920;2023-03-01T05:50:11;101985.56;;;13.80;48.70
6942;BME280;3510;43.200;27.920;2023-03-01T05:52:38;101997.53;;;14.29;47.39
6942;BME280;3510;43.200;27.920;2023-03-01T05:55:06;101992.09;;;13.59;49.20
6942;BME280;3510;43.200;27.920;2023-03-01T05:57:35;101994.03;;;13.80;47.92
6942;BME280;3510;43.200;27.920;2023-03-01T06:00:02;101997.88;;;13.39;49.05
6942;BME280;3510;43.200;27.920;2023-03-01T06:02:29;102000.81;;;13.90;48.14
6942;BME280;3510;43.200;27.920;2023-03-01T06:04:57;102001.13;;;14.60;46.46
6942;BME280;3510;43.200;27.920;2023-03-01T06:07:23;101982.13;;;14.36;46.73
6942;BME280;3510;43.200;27.920;2023-03-01T06:09:50;101957.38;;;13.86;47.13
6942;BME280;3510;43.200;27.920;2023-03-01T06:12:17;101991.75;;;14.40;46.63
6942;BME280;3510;43.200;27.920;2023-03-01T06:14:45;102000.06;;;14.29;47.05
6942;BME280;3510;43.200;27.920;2023-03-01T06:17:11;101973.25;;;14.12;46.95
6942;BME280;3510;43.200;27.920;2023-03-01T06:19:38;102005.53;;;14.52;46.14
6942;BME280;3510;43.200;27.920;2023-03-01T06:22:06;102004.16;;;13.80;47.90
6942;BME280;3510;43.200;27.920;2023-03-01T06:24:33;102006.03;;;14.77;45.84
6942;BME280;3510;43.200;27.920;2023-03-01T06:27:00;101993.63;;;14.33;46.32
6942;BME280;3510;43.200;27.920;2023-03-01T06:29:27;101996.22;;;14.43;46.99
6942;BME280;3510;43.200;27.920;2023-03-01T06:31:54;101986.78;;;14.32;47.03
6942;BME280;3510;43.200;27.920;2023-03-01T06:34:20;101984.78;;;14.38;47.29
6942;BME280;3510;43.200;27.920;2023-03-01T06:36:52;101993.63;;;14.81;46.59
6942;BME280;3510;43.200;27.920;2023-03-01T06:39:20;101993.06;;;14.26;47.02
6942;BME280;3510;43.200;27.920;2023-03-01T06:41:46;101982.53;;;14.41;46.28
6942;BME280;3510;43.200;27.920;2023-03-01T06:44:13;101979.88;;;13.64;47.73
6942;BME280;3510;43.200;27.920;2023-03-01T06:46:40;101963.72;;;14.28;47.03
6942;BME280;3510;43.200;27.920;2023-03-01T06:49:07;101982.88;;;14.35;46.93
6942;BME280;3510;43.200;27.920;2023-03-01T06:51:35;101983.66;;;14.15;47.95
6942;BME280;3510;43.200;27.920;2023-03-01T06:54:03;101984.69;;;13.98;47.78
6942;BME280;3510;43.200;27.920;2023-03-01T06:56:31;101976.81;;;14.91;46.50
6942;BME280;3510;43.200;27.920;2023-03-01T06:58:58;101978.97;;;14.39;47.48
6942;BME280;3510;43.200;27.920;2023-03-01T07:01:25;101983.41;;;14.41;47.29
6942;BME280;3510;43.200;27.920;2023-03-01T07:03:53;101990.91;;;14.21;47.81
6942;BME280;3510;43.200;27.920;2023-03-01T07:06:20;101987.16;;;13.88;47.85
6942;BME280;3510;43.200;27.920;2023-03-01T07:08:47;101995.81;;;13.35;49.26
6942;BME280;3510;43.200;27.920;2023-03-01T07:11:14;101998.22;;;14.18;47.59
6942;BME280;3510;43.200;27.920;2023-03-01T07:13:43;101931.09;;;13.01;48.69
6942;BME280;3510;43.200;27.920;2023-03-01T07:16:15;101997.59;;;14.01;47.67
6942;BME280;3510;43.200;27.920;2023-03-01T07:18:54;101949.50;;;13.64;48.24
6942;BME280;3510;43.200;27.920;2023-03-01T07:21:21;101991.53;;;13.25;48.69
6942;BME280;3510;43.200;27.920;2023-03-01T07:23:47;101965.03;;;12.94;49.09
6942;BME280;3510;43.200;27.920;2023-03-01T07:26:14;101995.63;;;14.08;47.22
6942;BME280;3510;43.200;27.920;2023-03-01T07:28:42;101975.72;;;14.02;47.65
6942;BME280;3510;43.200;27.920;2023-03-01T07:31:09;101993.00;;;14.54;47.32
6942;BME280;3510;43.200;27.920;2023-03-01T07:33:36;102015.81;;;14.54;46.85
6942;BME280;3510;43.200;27.920;2023-03-01T07:36:04;102013.09;;;14.71;46.86
6942;BME280;3510;43.200;27.920;2023-03-01T07:38:31;102011.31;;;14.70;46.69
6942;BME280;3510;43.200;27.920;2023-03-01T07:40:59;102002.72;;;14.68;46.89
6942;BME280;3510;43.200;27.920;2023-03-01T07:43:26;102002.66;;;14.58;46.74
6942;BME280;3510;43.200;27.920;2023-03-01T07:46:00;101989.13;;;14.39;47.34
6942;BME280;3510;43.200;27.920;2023-03-01T07:48:27;101972.50;;;14.13;47.49
6942;BME280;3510;43.200;27.920;2023-03-01T07:50:54;101996.13;;;14.70;46.53
6942;BME280;3510;43.200;27.920;2023-03-01T07:53:20;101965.16;;;14.35;47.19
6942;BME280;3510;43.200;27.920;2023-03-01T07:55:48;101988.91;;;14.08;47.58
6942;BME280;3510;43.200;27.920;2023-03-01T07:58:15;101991.50;;;14.37;47.44
6942;BME280;3510;43.200;27.920;2023-03-01T08:00:42;101983.50;;;14.33;47.32
6942;BME280;3510;43.200;27.920;2023-03-01T08:03:10;101994.84;;;14.75;47.10
6942;BME280;3510;43.200;27.920;2023-03-01T08:05:37;101979.28;;;14.04;47.64
6942;BME280;3510;43.200;27.920;2023-03-01T08:08:04;101923.88;;;14.65;45.86
6942;BME280;3510;43.200;27.920;2023-03-01T08:10:31;102003.59;;;15.18;45.23
6942;BME280;3510;43.200;27.920;2023-03-01T08:12:58;101994.63;;;15.42;45.29
6942;BME280;3510;43.200;27.920;2023-03-01T08:15:24;101996.72;;;14.39;46.44
6942;BME280;3510;43.200;27.920;2023-03-01T08:17:51;101995.34;;;14.23;46.36
6942;BME280;3510;43.200;27.920;2023-03-01T08:20:18;102003.88;;;15.42;44.58
6942;BME280;3510;43.200;27.920;2023-03-01T08:22:45;102000.69;;;14.08;46.57
6942;BME280;3510;43.200;27.920;2023-03-01T08:25:12;101994.75;;;14.07;46.94
6942;BME280;3510;43.200;27.920;2023-03-01T08:27:40;101993.34;;;14.29;45.78
6942;BME280;3510;43.200;27.920;2023-03-01T08:30:07;101995.41;;;13.49;48.13
6942;BME280;3510;43.200;27.920;2023-03-01T08:32:35;101993.63;;;14.33;45.55
6942;BME280;3510;43.200;27.920;2023-03-01T08:35:01;101995.50;;;14.25;46.58
6942;BME280;3510;43.200;27.920;2023-03-01T08:37:29;101996.78;;;15.48;43.85
6942;BME280;3510;43.200;27.920;2023-03-01T08:39:57;101998.69;;;15.30;43.71
6942;BME280;3510;43.200;27.920;2023-03-01T08:42:24;101996.03;;;15.49;43.49
6942;BME280;3510;43.200;27.920;2023-03-01T08:44:50;101992.59;;;15.28;43.92
6942;BME280;3510;43.200;27.920;2023-03-01T08:47:17;101999.88;;;14.94;44.61
6942;BME280;3510;43.200;27.920;2023-03-01T08:49:44;101998.44;;;15.37;44.01
6942;BME280;3510;43.200;27.920;2023-03-01T08:52:10;101997.66;;;14.49;44.70
6942;BME280;3510;43.200;27.920;2023-03-01T08:54:38;101992.84;;;15.21;44.15
6942;BME280;3510;43.200;27.920;2023-03-01T08:57:05;101993.41;;;14.88;44.63
6942;BME280;3510;43.200;27.920;2023-03-01T08:59:31;101986.53;;;14.28;44.79
6942;BME280;3510;43.200;27.920;2023-03-01T09:02:02;101984.31;;;14.71;44.15
6942;BME280;3510;43.200;27.920;2023-03-01T09:04:28;101993.63;;;14.81;44.23
6942;BME280;3510;43.200;27.920;2023-03-01T09:06:55;101991.41;;;14.46;44.79
6942;BME280;3510;43.200;27.920;2023-03-01T09:09:21;101995.75;;;14.28;44.21
6942;BME280;3510;43.200;27.920;2023-03-01T09:11:49;101981.22;;;14.84;44.79
6942;BME280;3510;43.200;27.920;2023-03-01T09:14:15;101969.81;;;14.12;45.55
6942;BME280;3510;43.200;27.920;2023-03-01T09:16:42;101976.22;;;14.65;45.02
6942;BME280;3510;43.200;27.920;2023-03-01T09:19:08;101982.25;;;14.38;44.82
6942;BME280;3510;43.200;27.920;2023-03-01T09:21:36;101984.53;;;14.16;45.65
6942;BME280;3510;43.200;27.920;2023-03-01T09:24:03;101993.34;;;15.27;43.92
6942;BME280;3510;43.200;27.920;2023-03-01T09:26:29;101989.44;;;14.81;44.89
6942;BME280;3510;43.200;27.920;2023-03-01T09:28:57;101989.28;;;14.69;44.81
6942;BME280;3510;43.200;27.920;2023-03-01T09:31:24;101990.47;;;14.93;43.58
6942;BME280;3510;43.200;27.920;2023-03-01T09:33:51;101987.03;;;15.83;42.62
6942;BME280;3510;43.200;27.920;2023-03-01T09:36:19;101989.69;;;15.44;43.15
6942;BME280;3510;43.200;27.920;2023-03-01T09:38:47;101998.59;;;14.41;43.69
6942;BME280;3510;43.200;27.920;2023-03-01T09:41:19;101984.72;;;13.90;45.61
6942;BME280;3510;43.200;27.920;2023-03-01T09:43:51;101981.34;;;13.43;46.89
6942;BME280;3510;43.200;27.920;2023-03-01T09:46:20;101983.50;;;13.21;47.13
6942;BME280;3510;43.200;27.920;2023-03-01T09:48:49;101980.06;;;13.75;46.37
6942;BME280;3510;43.200;27.920;2023-03-01T09:51:17;101976.91;;;13.59;46.82
6942;BME280;3510;43.200;27.920;2023-03-01T09:59:44;101980.38;;;14.64;44.16
6942;BME280;3510;43.200;27.920;2023-03-01T10:02:21;101977.47;;;14.41;44.25
6942;BME280;3510;43.200;27.920;2023-03-01T10:04:51;101975.81;;;14.41;44.45
6942;BME280;3510;43.200;27.920;2023-03-01T10:07:22;101967.25;;;14.49;44.82
6942;BME280;3510;43.200;27.920;2023-03-01T10:09:52;101964.94;;;14.71;44.69
6942;BME280;3510;43.200;27.920;2023-03-01T10:12:22;101966.44;;;14.40;44.01
6942;BME280;3510;43.200;27.920;2023-03-01T10:14:51;101973.28;;;15.20;43.02
6942;BME280;3510;43.200;27.920;2023-03-01T10:17:25;101964.44;;;14.65;44.17
6942;BME280;3510;43.200;27.920;2023-03-01T10:19:53;101960.94;;;14.94;43.16
6942;BME280;3510;43.200;27.920;2023-03-01T10:22:21;101954.31;;;14.17;44.31
6942;BME280;3510;43.200;27.920;2023-03-01T10:24:49;101955.53;;;12.92;46.64
6942;BME280;3510;43.200;27.920;2023-03-01T10:27:17;101952.22;;;14.32;43.39
6942;BME280;3510;43.200;27.920;2023-03-01T10:29:47;101942.38;;;14.16;44.08
6942;BME280;3510;43.200;27.920;2023-03-01T10:32:16;101952.50;;;13.60;44.60
6942;BME280;3510;43.200;27.920;2023-03-01T10:34:44;101946.00;;;14.28;43.09
6942;BME280;3510;43.200;27.920;2023-03-01T10:37:12;101943.19;;;14.25;43.59
6942;BME280;3510;43.200;27.920;2023-03-01T10:39:54;101950.72;;;14.63;43.33
6942;BME280;3510;43.200;27.920;2023-03-01T10:42:22;101944.16;;;14.65;42.41
6942;BME280;3510;43.200;27.920;2023-03-01T10:44:51;101928.00;;;14.94;42.31
6942;BME280;3510;43.200;27.920;2023-03-01T10:47:19;101930.09;;;14.69;42.95
6942;BME280;3510;43.200;27.920;2023-03-01T10:49:56;101927.97;;;14.73;42.72
6942;BME280;3510;43.200;27.920;2023-03-01T10:52:23;101919.16;;;15.40;41.80
6942;BME280;3510;43.200;27.920;2023-03-01T10:54:51;101925.16;;;14.70;42.73
6942;BME280;3510;43.200;27.920;2023-03-01T10:57:26;101926.00;;;15.51;41.69
6942;BME280;3510;43.200;27.920;2023-03-01T11:00:02;101930.75;;;14.87;42.41
6942;BME280;3510;43.200;27.920;2023-03-01T11:02:40;101933.97;;;14.94;42.37
6942;BME280;3510;43.200;27.920;2023-03-01T11:05:16;101927.50;;;14.88;43.14
6942;BME280;3510;43.200;27.920;2023-03-01T11:07:47;101933.41;;;14.39;43.64
6942;BME280;3510;43.200;27.920;2023-03-01T11:10:16;101920.31;;;14.63;43.97
6942;BME280;3510;43.200;27.920;2023-03-01T11:12:43;101915.72;;;14.98;43.26
6942;BME280;3510;43.200;27.920;2023-03-01T11:15:15;101913.44;;;15.01;42.98
6942;BME280;3510;43.200;27.920;2023-03-01T11:17:46;101913.84;;;14.57;43.65
6942;BME280;3510;43.200;27.920;2023-03-01T11:20:15;101902.78;;;14.17;43.72
6942;BME280;3510;43.200;27.920;2023-03-01T11:22:45;101898.88;;;14.31;44.68
6942;BME280;3510;43.200;27.920;2023-03-01T11:25:13;101882.28;;;13.95;44.44
6942;BME280;3510;43.200;27.920;2023-03-01T11:27:41;101885.19;;;14.18;43.94
6942;BME280;3510;43.200;27.920;2023-03-01T11:30:15;101877.78;;;14.69;43.31
6942;BME280;3510;43.200;27.920;2023-03-01T11:32:59;101874.13;;;15.27;42.72
6942;BME280;3510;43.200;27.920;2023-03-01T11:35:31;101871.81;;;15.61;41.63
6942;BME280;3510;43.200;27.920;2023-03-01T11:38:07;101871.06;;;14.90;42.57
6942;BME280;3510;43.200;27.920;2023-03-01T11:40:39;101861.06;;;14.82;42.86
6942;BME280;3510;43.200;27.920;2023-03-01T11:43:09;101861.34;;;14.06;43.93
6942;BME280;3510;43.200;27.920;2023-03-01T11:45:45;101852.94;;;13.97;44.49
6942;BME280;3510;43.200;27.920;2023-03-01T11:48:23;101853.09;;;14.77;42.41
6942;BME280;3510;43.200;27.920;2023-03-01T11:50:54;101852.47;;;15.10;42.10
6942;BME280;3510;43.200;27.920;2023-03-01T11:53:32;101855.22;;;14.83;42.50
6942;BME280;3510;43.200;27.920;2023-03-01T11:56:03;101855.00;;;15.10;42.46
6942;BME280;3510;43.200;27.920;2023-03-01T11:58:36;101855.84;;;14.01;44.10
6942;BME280;3510;43.200;27.920;2023-03-01T12:01:11;101854.03;;;14.19;43.88
6942;BME280;3510;43.200;27.920;2023-03-01T12:03:46;101851.44;;;14.38;42.65
6942;BME280;3510;43.200;27.920;2023-03-01T12:06:21;101845.19;;;14.64;42.59
6942;BME280;3510;43.200;27.920;2023-03-01T12:08:53;101839.25;;;14.63;42.07
6942;BME280;3510;43.200;27.920;2023-03-01T12:11:23;101843.81;;;14.67;42.26
6942;BME280;3510;43.200;27.920;2023-03-01T12:14:07;101833.44;;;15.15;41.85
6942;BME280;3510;43.200;27.920;2023-03-01T12:16:45;101834.47;;;14.97;41.74
6942;BME280;3510;43.200;27.920;2023-03-01T12:19:26;101836.88;;;14.36;42.96
6942;BME280;3510;43.200;27.920;2023-03-01T12:22:04;101832.91;;;14.58;42.32
6942;BME280;3510;43.200;27.920;2023-03-01T12:27:22;101824.66;;;14.61;42.85
6942;BME280;3510;43.200;27.920;2023-03-01T12:29:54;101821.88;;;14.18;43.38
6942;BME280;3510;43.200;27.920;2023-03-01T12:32:33;101823.44;;;14.66;42.42
6942;BME280;3510;43.200;27.920;2023-03-01T12:35:06;101830.22;;;14.46;43.44
6942;BME280;3510;43.200;27.920;2023-03-01T12:37:42;101845.09;;;14.33;43.24
6942;BME280;3510;43.200;27.920;2023-03-01T12:40:51;101845.13;;;14.04;43.31
6942;BME280;3510;43.200;27.920;2023-03-01T12:43:30;101839.00;;;14.50;42.94
6942;BME280;3510;43.200;27.920;2023-03-01T12:46:10;101836.31;;;14.09;43.14
6942;BME280;3510;43.200;27.920;2023-03-01T12:48:43;101840.06;;;13.56;43.93
6942;BME280;3510;43.200;27.920;2023-03-01T12:51:12;101832.91;;;13.90;43.22
6942;BME280;3510;43.200;27.920;2023-03-01T12:53:42;101820.50;;;14.51;43.67
6942;BME280;3510;43.200;27.920;2023-03-01T12:56:10;101817.59;;;15.28;41.53
6942;BME280;3510;43.200;27.920;2023-03-01T12:58:39;101815.94;;;15.18;42.28
6942;BME280;3510;43.200;27.920;2023-03-01T13:01:13;101817.44;;;15.37;42.53
6942;BME280;3510;43.200;27.920;2023-03-01T13:03:55;101823.06;;;14.92;42.24
6942;BME280;3510;43.200;27.920;2023-03-01T13:06:25;101824.94;;;15.05;42.21
6942;BME280;3510;43.200;27.920;2023-03-01T13:08:58;101823.66;;;15.93;41.04
6942;BME280;3510;43.200;27.920;2023-03-01T13:11:28;101815.34;;;15.84;41.24
6942;BME280;3510;43.200;27.920;2023-03-01T13:16:40;101824.28;;;16.23;40.52
6942;BME280;3510;43.200;27.920;2023-03-01T13:19:13;101815.47;;;16.07;40.52
6942;BME280;3510;43.200;27.920;2023-03-01T13:21:42;101825.56;;;15.95;40.67